Edgewater, Maryland
Current Conditions -  °F | °C
As of 3:54 PM on Saturday 25 Oct 2014 (Local Time) from KNAK Reporting Station
Clear Clear  
Wind Chill: 71°   Ceiling: Unl
Heat Index: 71°   Visibility: 10mi
Dew Point: 43°   Wind: 9mph
Humidity: 36%   Direction: 250°WSW
Pressure: 29.78"   Gusts: 16mph
Location:  38.96°N, 76.55°W
Report Text: KNAK 251954Z AUTO 25008G14KT 210V280 10SM CLR 22/06 A2978 RMK AO2 SLP086 T02170061
Loading
Personal Weather Stations






























Interactive Weather Map
Tropical Storm Tracking
New forecast layout! Learn more

10-Day Weather Forecast

Advertisements
Track Severe Weather on mobile